sensor_id;sensor_type;location;lat;lon;timestamp;P1;durP1;ratioP1;P2;durP2;ratioP2
45011;SDS011;63444;48.148;11.542;2023-05-07T00:00:21;4.77;;;4.27;;
45011;SDS011;63444;48.148;11.542;2023-05-07T00:02:47;4.10;;;3.80;;
45011;SDS011;63444;48.148;11.542;2023-05-07T00:05:13;5.33;;;4.13;;
45011;SDS011;63444;48.148;11.542;2023-05-07T00:07:39;5.27;;;4.10;;
45011;SDS011;63444;48.148;11.542;2023-05-07T00:10:05;6.23;;;4.23;;
45011;SDS011;63444;48.148;11.542;2023-05-07T00:12:31;5.40;;;4.10;;
45011;SDS011;63444;48.148;11.542;2023-05-07T00:15:01;6.07;;;4.03;;
45011;SDS011;63444;48.148;11.542;2023-05-07T00:17:28;5.50;;;4.00;;
45011;SDS011;63444;48.148;11.542;2023-05-07T00:19:54;5.30;;;4.43;;
45011;SDS011;63444;48.148;11.542;2023-05-07T00:22:20;6.70;;;4.53;;
45011;SDS011;63444;48.148;11.542;2023-05-07T00:24:46;5.53;;;4.57;;
45011;SDS011;63444;48.148;11.542;2023-05-07T00:27:12;5.47;;;4.60;;
45011;SDS011;63444;48.148;11.542;2023-05-07T00:29:37;5.53;;;5.03;;
45011;SDS011;63444;48.148;11.542;2023-05-07T00:32:03;5.13;;;4.63;;
45011;SDS011;63444;48.148;11.542;2023-05-07T00:34:29;5.80;;;4.40;;
45011;SDS011;63444;48.148;11.542;2023-05-07T00:36:55;5.87;;;5.00;;
45011;SDS011;63444;48.148;11.542;2023-05-07T00:39:20;6.87;;;4.70;;
45011;SDS011;63444;48.148;11.542;2023-05-07T00:41:46;5.67;;;4.80;;
45011;SDS011;63444;48.148;11.542;2023-05-07T00:44:12;7.53;;;4.90;;
45011;SDS011;63444;48.148;11.542;2023-05-07T00:46:38;6.97;;;5.27;;
45011;SDS011;63444;48.148;11.542;2023-05-07T00:49:03;6.93;;;4.87;;
45011;SDS011;63444;48.148;11.542;2023-05-07T00:51:30;6.37;;;5.50;;
45011;SDS011;63444;48.148;11.542;2023-05-07T00:53:55;7.03;;;6.30;;
45011;SDS011;63444;48.148;11.542;2023-05-07T00:56:21;9.47;;;6.37;;
45011;SDS011;63444;48.148;11.542;2023-05-07T00:58:47;8.57;;;6.20;;
45011;SDS011;63444;48.148;11.542;2023-05-07T01:01:13;7.27;;;6.13;;
45011;SDS011;63444;48.148;11.542;2023-05-07T01:03:41;7.90;;;5.97;;
45011;SDS011;63444;48.148;11.542;2023-05-07T01:06:07;7.60;;;5.73;;
45011;SDS011;63444;48.148;11.542;2023-05-07T01:08:37;7.37;;;5.77;;
45011;SDS011;63444;48.148;11.542;2023-05-07T01:11:04;7.23;;;5.63;;
45011;SDS011;63444;48.148;11.542;2023-05-07T01:13:31;7.23;;;6.00;;
45011;SDS011;63444;48.148;11.542;2023-05-07T01:15:58;7.10;;;5.97;;
45011;SDS011;63444;48.148;11.542;2023-05-07T01:18:23;9.30;;;6.63;;
45011;SDS011;63444;48.148;11.542;2023-05-07T01:20:51;9.13;;;6.47;;
45011;SDS011;63444;48.148;11.542;2023-05-07T01:23:17;8.87;;;6.43;;
45011;SDS011;63444;48.148;11.542;2023-05-07T01:25:43;7.33;;;6.00;;
45011;SDS011;63444;48.148;11.542;2023-05-07T01:28:16;8.00;;;5.80;;
45011;SDS011;63444;48.148;11.542;2023-05-07T01:30:42;7.40;;;6.17;;
45011;SDS011;63444;48.148;11.542;2023-05-07T01:33:13;8.37;;;6.13;;
45011;SDS011;63444;48.148;11.542;2023-05-07T01:35:41;6.53;;;5.80;;
45011;SDS011;63444;48.148;11.542;2023-05-07T01:38:11;8.07;;;6.10;;
45011;SDS011;63444;48.148;11.542;2023-05-07T01:40:37;8.13;;;6.37;;
45011;SDS011;63444;48.148;11.542;2023-05-07T01:43:03;7.40;;;6.30;;
45011;SDS011;63444;48.148;11.542;2023-05-07T01:45:30;7.03;;;5.63;;
45011;SDS011;63444;48.148;11.542;2023-05-07T01:47:56;6.87;;;5.80;;
45011;SDS011;63444;48.148;11.542;2023-05-07T01:50:23;6.77;;;6.00;;
45011;SDS011;63444;48.148;11.542;2023-05-07T01:52:50;7.33;;;5.77;;
45011;SDS011;63444;48.148;11.542;2023-05-07T01:55:15;7.27;;;5.70;;
45011;SDS011;63444;48.148;11.542;2023-05-07T01:57:41;6.50;;;5.90;;
45011;SDS011;63444;48.148;11.542;2023-05-07T02:00:07;7.30;;;6.03;;
45011;SDS011;63444;48.148;11.542;2023-05-07T02:02:34;7.77;;;5.77;;
45011;SDS011;63444;48.148;11.542;2023-05-07T02:05:00;6.07;;;5.30;;
45011;SDS011;63444;48.148;11.542;2023-05-07T02:07:26;6.47;;;5.73;;
45011;SDS011;63444;48.148;11.542;2023-05-07T02:09:52;7.13;;;5.53;;
45011;SDS011;63444;48.148;11.542;2023-05-07T02:12:18;6.40;;;5.20;;
45011;SDS011;63444;48.148;11.542;2023-05-07T02:14:44;6.10;;;5.10;;
45011;SDS011;63444;48.148;11.542;2023-05-07T02:17:10;6.00;;;4.97;;
45011;SDS011;63444;48.148;11.542;2023-05-07T02:19:35;6.13;;;4.53;;
45011;SDS011;63444;48.148;11.542;2023-05-07T02:22:01;5.93;;;4.90;;
45011;SDS011;63444;48.148;11.542;2023-05-07T02:24:26;5.93;;;4.90;;
45011;SDS011;63444;48.148;11.542;2023-05-07T02:26:52;5.37;;;4.83;;
45011;SDS011;63444;48.148;11.542;2023-05-07T02:29:17;5.27;;;4.47;;
45011;SDS011;63444;48.148;11.542;2023-05-07T02:31:43;4.93;;;4.43;;
45011;SDS011;63444;48.148;11.542;2023-05-07T02:34:08;6.00;;;4.73;;
45011;SDS011;63444;48.148;11.542;2023-05-07T02:36:34;5.73;;;5.07;;
45011;SDS011;63444;48.148;11.542;2023-05-07T02:39:00;6.67;;;4.90;;
45011;SDS011;63444;48.148;11.542;2023-05-07T02:41:25;6.17;;;4.90;;
45011;SDS011;63444;48.148;11.542;2023-05-07T02:43:53;5.77;;;4.43;;
45011;SDS011;63444;48.148;11.542;2023-05-07T02:46:18;8.10;;;5.20;;
45011;SDS011;63444;48.148;11.542;2023-05-07T02:48:44;5.00;;;4.60;;
45011;SDS011;63444;48.148;11.542;2023-05-07T02:51:09;8.77;;;4.57;;
45011;SDS011;63444;48.148;11.542;2023-05-07T02:53:35;9.93;;;4.90;;
45011;SDS011;63444;48.148;11.542;2023-05-07T02:56:01;5.40;;;4.77;;
45011;SDS011;63444;48.148;11.542;2023-05-07T02:58:27;9.10;;;5.00;;
45011;SDS011;63444;48.148;11.542;2023-05-07T03:00:53;4.50;;;4.10;;
45011;SDS011;63444;48.148;11.542;2023-05-07T03:03:19;5.23;;;4.73;;
45011;SDS011;63444;48.148;11.542;2023-05-07T03:05:45;4.70;;;4.27;;
45011;SDS011;63444;48.148;11.542;2023-05-07T03:08:11;4.97;;;3.93;;
45011;SDS011;63444;48.148;11.542;2023-05-07T03:10:37;4.70;;;4.30;;
45011;SDS011;63444;48.148;11.542;2023-05-07T03:13:02;4.63;;;4.10;;
45011;SDS011;63444;48.148;11.542;2023-05-07T03:15:28;4.63;;;4.10;;
45011;SDS011;63444;48.148;11.542;2023-05-07T03:17:54;5.67;;;3.70;;
45011;SDS011;63444;48.148;11.542;2023-05-07T03:20:20;5.90;;;4.10;;
45011;SDS011;63444;48.148;11.542;2023-05-07T03:22:45;5.10;;;4.10;;
45011;SDS011;63444;48.148;11.542;2023-05-07T03:25:12;4.23;;;3.83;;
45011;SDS011;63444;48.148;11.542;2023-05-07T03:27:39;6.00;;;3.80;;
45011;SDS011;63444;48.148;11.542;2023-05-07T03:30:04;4.23;;;3.83;;
45011;SDS011;63444;48.148;11.542;2023-05-07T03:32:31;5.53;;;4.10;;
45011;SDS011;63444;48.148;11.542;2023-05-07T03:34:57;4.47;;;4.07;;
45011;SDS011;63444;48.148;11.542;2023-05-07T03:37:23;5.20;;;4.00;;
45011;SDS011;63444;48.148;11.542;2023-05-07T03:39:48;5.43;;;4.10;;
45011;SDS011;63444;48.148;11.542;2023-05-07T03:42:14;4.50;;;4.10;;
45011;SDS011;63444;48.148;11.542;2023-05-07T03:44:40;5.80;;;3.90;;
45011;SDS011;63444;48.148;11.542;2023-05-07T03:47:05;5.50;;;4.20;;
45011;SDS011;63444;48.148;11.542;2023-05-07T03:49:31;4.60;;;4.20;;
45011;SDS011;63444;48.148;11.542;2023-05-07T03:51:57;5.13;;;4.37;;
45011;SDS011;63444;48.148;11.542;2023-05-07T03:54:22;4.17;;;3.70;;
45011;SDS011;63444;48.148;11.542;2023-05-07T03:56:48;5.40;;;4.27;;
45011;SDS011;63444;48.148;11.542;2023-05-07T03:59:13;4.90;;;3.93;;
45011;SDS011;63444;48.148;11.542;2023-05-07T04:01:39;4.70;;;4.07;;
45011;SDS011;63444;48.148;11.542;2023-05-07T04:04:05;4.53;;;4.13;;
45011;SDS011;63444;48.148;11.542;2023-05-07T04:06:30;4.83;;;4.00;;
45011;SDS011;63444;48.148;11.542;2023-05-07T04:08:56;5.00;;;4.00;;
45011;SDS011;63444;48.148;11.542;2023-05-07T04:11:22;4.77;;;4.17;;
45011;SDS011;63444;48.148;11.542;2023-05-07T04:13:48;5.23;;;4.03;;
45011;SDS011;63444;48.148;11.542;2023-05-07T04:16:14;4.83;;;4.03;;
45011;SDS011;63444;48.148;11.542;2023-05-07T04:18:39;4.63;;;4.13;;
45011;SDS011;63444;48.148;11.542;2023-05-07T04:21:05;4.83;;;4.20;;
45011;SDS011;63444;48.148;11.542;2023-05-07T04:23:38;6.53;;;4.30;;
45011;SDS011;63444;48.148;11.542;2023-05-07T04:26:03;5.80;;;4.63;;
45011;SDS011;63444;48.148;11.542;2023-05-07T04:28:29;3.93;;;3.60;;
45011;SDS011;63444;48.148;11.542;2023-05-07T04:30:55;4.03;;;3.63;;
45011;SDS011;63444;48.148;11.542;2023-05-07T04:33:20;5.50;;;4.70;;
45011;SDS011;63444;48.148;11.542;2023-05-07T04:35:46;5.27;;;4.73;;
45011;SDS011;63444;48.148;11.542;2023-05-07T04:38:11;5.17;;;4.20;;
45011;SDS011;63444;48.148;11.542;2023-05-07T04:40:37;5.03;;;3.80;;
45011;SDS011;63444;48.148;11.542;2023-05-07T04:43:03;6.03;;;3.80;;
45011;SDS011;63444;48.148;11.542;2023-05-07T04:45:29;4.13;;;3.80;;
45011;SDS011;63444;48.148;11.542;2023-05-07T04:47:55;4.27;;;3.50;;
45011;SDS011;63444;48.148;11.542;2023-05-07T04:50:20;5.20;;;3.73;;
45011;SDS011;63444;48.148;11.542;2023-05-07T04:52:48;4.97;;;3.77;;
45011;SDS011;63444;48.148;11.542;2023-05-07T04:55:14;3.70;;;3.40;;
45011;SDS011;63444;48.148;11.542;2023-05-07T04:57:39;4.20;;;3.50;;
45011;SDS011;63444;48.148;11.542;2023-05-07T05:00:06;4.17;;;3.00;;
45011;SDS011;63444;48.148;11.542;2023-05-07T05:02:35;3.50;;;3.20;;
45011;SDS011;63444;48.148;11.542;2023-05-07T05:05:01;3.33;;;3.03;;
45011;SDS011;63444;48.148;11.542;2023-05-07T05:07:27;3.60;;;3.27;;
45011;SDS011;63444;48.148;11.542;2023-05-07T05:09:53;5.70;;;3.40;;
45011;SDS011;63444;48.148;11.542;2023-05-07T05:12:19;4.77;;;3.33;;
45011;SDS011;63444;48.148;11.542;2023-05-07T05:14:45;7.37;;;3.57;;
45011;SDS011;63444;48.148;11.542;2023-05-07T05:17:10;3.73;;;3.43;;
45011;SDS011;63444;48.148;11.542;2023-05-07T05:19:36;3.40;;;3.10;;
45011;SDS011;63444;48.148;11.542;2023-05-07T05:22:01;4.00;;;3.20;;
45011;SDS011;63444;48.148;11.542;2023-05-07T05:24:28;3.30;;;3.00;;
45011;SDS011;63444;48.148;11.542;2023-05-07T05:26:55;3.40;;;3.10;;
45011;SDS011;63444;48.148;11.542;2023-05-07T05:29:20;3.17;;;2.87;;
45011;SDS011;63444;48.148;11.542;2023-05-07T05:31:46;3.40;;;3.10;;
45011;SDS011;63444;48.148;11.542;2023-05-07T05:34:12;3.63;;;3.13;;
45011;SDS011;63444;48.148;11.542;2023-05-07T05:36:37;4.37;;;3.07;;
45011;SDS011;63444;48.148;11.542;2023-05-07T05:39:03;3.73;;;3.43;;
45011;SDS011;63444;48.148;11.542;2023-05-07T05:41:29;4.90;;;3.70;;
45011;SDS011;63444;48.148;11.542;2023-05-07T05:43:55;5.30;;;3.93;;
45011;SDS011;63444;48.148;11.542;2023-05-07T05:46:21;5.67;;;4.30;;
45011;SDS011;63444;48.148;11.542;2023-05-07T05:48:46;4.97;;;3.57;;
45011;SDS011;63444;48.148;11.542;2023-05-07T05:51:12;3.70;;;3.13;;
45011;SDS011;63444;48.148;11.542;2023-05-07T05:53:38;4.77;;;3.20;;
45011;SDS011;63444;48.148;11.542;2023-05-07T05:56:03;3.60;;;3.30;;
45011;SDS011;63444;48.148;11.542;2023-05-07T05:58:29;6.30;;;3.17;;
45011;SDS011;63444;48.148;11.542;2023-05-07T06:00:55;3.37;;;3.07;;
45011;SDS011;63444;48.148;11.542;2023-05-07T06:03:21;4.47;;;3.50;;
45011;SDS011;63444;48.148;11.542;2023-05-07T06:05:48;3.67;;;3.17;;
45011;SDS011;63444;48.148;11.542;2023-05-07T06:08:13;3.60;;;3.10;;
45011;SDS011;63444;48.148;11.542;2023-05-07T06:10:39;4.10;;;3.13;;
45011;SDS011;63444;48.148;11.542;2023-05-07T06:13:05;3.50;;;2.93;;
45011;SDS011;63444;48.148;11.542;2023-05-07T06:15:31;5.30;;;3.70;;
45011;SDS011;63444;48.148;11.542;2023-05-07T06:17:56;3.10;;;2.90;;
45011;SDS011;63444;48.148;11.542;2023-05-07T06:20:22;3.07;;;2.80;;
45011;SDS011;63444;48.148;11.542;2023-05-07T06:22:48;3.27;;;2.97;;
45011;SDS011;63444;48.148;11.542;2023-05-07T06:25:14;4.73;;;3.40;;
45011;SDS011;63444;48.148;11.542;2023-05-07T06:27:40;4.10;;;2.90;;
45011;SDS011;63444;48.148;11.542;2023-05-07T06:30:06;2.80;;;2.60;;
45011;SDS011;63444;48.148;11.542;2023-05-07T06:32:33;3.10;;;2.73;;
45011;SDS011;63444;48.148;11.542;2023-05-07T06:34:59;2.80;;;2.60;;
45011;SDS011;63444;48.148;11.542;2023-05-07T06:37:25;4.37;;;2.73;;
45011;SDS011;63444;48.148;11.542;2023-05-07T06:39:50;4.47;;;2.87;;
45011;SDS011;63444;48.148;11.542;2023-05-07T06:42:16;3.27;;;2.97;;
45011;SDS011;63444;48.148;11.542;2023-05-07T06:44:42;3.17;;;2.47;;
45011;SDS011;63444;48.148;11.542;2023-05-07T06:47:07;2.70;;;2.40;;
45011;SDS011;63444;48.148;11.542;2023-05-07T06:49:33;5.87;;;2.53;;
45011;SDS011;63444;48.148;11.542;2023-05-07T06:51:58;2.67;;;2.20;;
45011;SDS011;63444;48.148;11.542;2023-05-07T06:54:24;3.63;;;2.70;;
45011;SDS011;63444;48.148;11.542;2023-05-07T06:56:49;3.03;;;2.60;;
45011;SDS011;63444;48.148;11.542;2023-05-07T06:59:15;3.70;;;2.37;;
45011;SDS011;63444;48.148;11.542;2023-05-07T07:01:41;3.53;;;2.07;;
45011;SDS011;63444;48.148;11.542;2023-05-07T07:04:06;2.55;;;2.00;;
45011;SDS011;63444;48.148;11.542;2023-05-07T07:06:32;4.55;;;2.58;;
45011;SDS011;63444;48.148;11.542;2023-05-07T07:08:58;2.97;;;2.40;;
45011;SDS011;63444;48.148;11.542;2023-05-07T07:11:24;3.90;;;2.67;;
45011;SDS011;63444;48.148;11.542;2023-05-07T07:13:49;3.58;;;2.60;;
45011;SDS011;63444;48.148;11.542;2023-05-07T07:16:15;4.03;;;2.37;;
45011;SDS011;63444;48.148;11.542;2023-05-07T07:18:41;4.78;;;2.28;;
45011;SDS011;63444;48.148;11.542;2023-05-07T07:21:07;3.97;;;2.25;;
45011;SDS011;63444;48.148;11.542;2023-05-07T07:23:32;2.78;;;2.20;;
45011;SDS011;63444;48.148;11.542;2023-05-07T07:25:58;5.35;;;2.42;;
45011;SDS011;63444;48.148;11.542;2023-05-07T07:28:23;4.13;;;2.33;;
45011;SDS011;63444;48.148;11.542;2023-05-07T07:30:49;3.42;;;2.30;;
45011;SDS011;63444;48.148;11.542;2023-05-07T07:33:15;2.10;;;2.00;;
45011;SDS011;63444;48.148;11.542;2023-05-07T07:35:41;1.98;;;1.80;;
45011;SDS011;63444;48.148;11.542;2023-05-07T07:38:06;2.42;;;1.85;;
45011;SDS011;63444;48.148;11.542;2023-05-07T07:40:34;2.53;;;1.90;;
45011;SDS011;63444;48.148;11.542;2023-05-07T07:43:00;2.75;;;2.20;;
45011;SDS011;63444;48.148;11.542;2023-05-07T07:45:26;2.78;;;1.92;;
45011;SDS011;63444;48.148;11.542;2023-05-07T07:47:52;2.95;;;2.00;;
45011;SDS011;63444;48.148;11.542;2023-05-07T07:50:17;3.53;;;2.08;;
45011;SDS011;63444;48.148;11.542;2023-05-07T07:52:43;3.47;;;2.35;;
45011;SDS011;63444;48.148;11.542;2023-05-07T07:55:09;2.83;;;2.10;;
45011;SDS011;63444;48.148;11.542;2023-05-07T07:57:35;2.58;;;2.17;;
45011;SDS011;63444;48.148;11.542;2023-05-07T08:00:00;3.35;;;1.73;;
45011;SDS011;63444;48.148;11.542;2023-05-07T08:02:26;2.60;;;1.95;;
45011;SDS011;63444;48.148;11.542;2023-05-07T08:04:51;3.30;;;2.17;;
45011;SDS011;63444;48.148;11.542;2023-05-07T08:07:17;2.67;;;1.90;;
45011;SDS011;63444;48.148;11.542;2023-05-07T08:09:45;2.22;;;1.85;;
45011;SDS011;63444;48.148;11.542;2023-05-07T08:12:11;2.38;;;2.00;;
45011;SDS011;63444;48.148;11.542;2023-05-07T08:14:37;4.18;;;1.88;;
45011;SDS011;63444;48.148;11.542;2023-05-07T08:17:03;2.25;;;2.00;;
45011;SDS011;63444;48.148;11.542;2023-05-07T08:19:29;3.03;;;2.10;;
45011;SDS011;63444;48.148;11.542;2023-05-07T08:21:55;1.63;;;1.52;;
45011;SDS011;63444;48.148;11.542;2023-05-07T08:24:20;2.42;;;1.70;;
45011;SDS011;63444;48.148;11.542;2023-05-07T08:26:46;1.90;;;1.70;;
45011;SDS011;63444;48.148;11.542;2023-05-07T08:29:11;2.05;;;1.80;;
45011;SDS011;63444;48.148;11.542;2023-05-07T08:31:37;3.95;;;2.10;;
45011;SDS011;63444;48.148;11.542;2023-05-07T08:34:05;3.25;;;1.83;;
45011;SDS011;63444;48.148;11.542;2023-05-07T08:36:31;3.40;;;2.10;;
45011;SDS011;63444;48.148;11.542;2023-05-07T08:38:57;3.92;;;2.05;;
45011;SDS011;63444;48.148;11.542;2023-05-07T08:41:24;2.28;;;2.08;;
45011;SDS011;63444;48.148;11.542;2023-05-07T08:43:50;2.63;;;1.90;;
45011;SDS011;63444;48.148;11.542;2023-05-07T08:46:20;2.15;;;1.80;;
45011;SDS011;63444;48.148;11.542;2023-05-07T08:48:50;3.90;;;1.42;;
45011;SDS011;63444;48.148;11.542;2023-05-07T08:51:20;1.90;;;1.75;;
45011;SDS011;63444;48.148;11.542;2023-05-07T08:53:48;2.42;;;1.80;;
45011;SDS011;63444;48.148;11.542;2023-05-07T08:56:14;3.00;;;1.70;;
45011;SDS011;63444;48.148;11.542;2023-05-07T08:58:41;1.90;;;1.48;;
45011;SDS011;63444;48.148;11.542;2023-05-07T09:01:12;2.90;;;2.13;;
45011;SDS011;63444;48.148;11.542;2023-05-07T09:03:39;2.53;;;2.00;;
45011;SDS011;63444;48.148;11.542;2023-05-07T09:06:05;1.77;;;1.55;;
45011;SDS011;63444;48.148;11.542;2023-05-07T09:08:34;2.10;;;1.55;;
45011;SDS011;63444;48.148;11.542;2023-05-07T09:11:00;1.73;;;1.40;;
45011;SDS011;63444;48.148;11.542;2023-05-07T09:13:27;2.47;;;1.33;;
45011;SDS011;63444;48.148;11.542;2023-05-07T09:15:52;2.40;;;1.50;;
45011;SDS011;63444;48.148;11.542;2023-05-07T09:18:18;2.10;;;1.70;;
45011;SDS011;63444;48.148;11.542;2023-05-07T09:20:44;2.70;;;1.50;;
45011;SDS011;63444;48.148;11.542;2023-05-07T09:23:09;2.28;;;1.45;;
45011;SDS011;63444;48.148;11.542;2023-05-07T09:25:35;1.40;;;1.30;;
45011;SDS011;63444;48.148;11.542;2023-05-07T09:28:02;2.22;;;1.50;;
45011;SDS011;63444;48.148;11.542;2023-05-07T09:30:29;2.25;;;1.52;;
45011;SDS011;63444;48.148;11.542;2023-05-07T09:32:59;1.52;;;1.40;;
45011;SDS011;63444;48.148;11.542;2023-05-07T09:35:26;2.28;;;1.33;;
45011;SDS011;63444;48.148;11.542;2023-05-07T09:37:53;1.27;;;1.15;;
45011;SDS011;63444;48.148;11.542;2023-05-07T09:40:23;3.17;;;1.67;;
45011;SDS011;63444;48.148;11.542;2023-05-07T09:42:53;1.50;;;1.40;;
45011;SDS011;63444;48.148;11.542;2023-05-07T09:45:24;1.83;;;1.30;;
45011;SDS011;63444;48.148;11.542;2023-05-07T09:47:52;2.15;;;1.40;;
45011;SDS011;63444;48.148;11.542;2023-05-07T09:50:20;1.70;;;1.50;;
45011;SDS011;63444;48.148;11.542;2023-05-07T09:52:51;2.53;;;1.60;;
45011;SDS011;63444;48.148;11.542;2023-05-07T09:55:18;4.65;;;1.70;;
45011;SDS011;63444;48.148;11.542;2023-05-07T09:57:43;1.95;;;1.60;;
45011;SDS011;63444;48.148;11.542;2023-05-07T10:00:11;2.08;;;1.42;;
45011;SDS011;63444;48.148;11.542;2023-05-07T10:02:37;2.65;;;1.73;;
45011;SDS011;63444;48.148;11.542;2023-05-07T10:05:11;2.42;;;1.50;;
45011;SDS011;63444;48.148;11.542;2023-05-07T10:07:38;1.75;;;1.20;;
45011;SDS011;63444;48.148;11.542;2023-05-07T10:10:05;1.85;;;1.65;;
45011;SDS011;63444;48.148;11.542;2023-05-07T10:12:31;2.65;;;1.63;;
45011;SDS011;63444;48.148;11.542;2023-05-07T10:15:03;1.98;;;1.40;;
45011;SDS011;63444;48.148;11.542;2023-05-07T10:17:36;1.80;;;1.65;;
45011;SDS011;63444;48.148;11.542;2023-05-07T10:20:04;1.83;;;1.40;;
45011;SDS011;63444;48.148;11.542;2023-05-07T10:22:31;4.67;;;2.10;;
45011;SDS011;63444;48.148;11.542;2023-05-07T10:25:03;2.03;;;1.52;;
45011;SDS011;63444;48.148;11.542;2023-05-07T10:27:34;2.05;;;1.77;;
45011;SDS011;63444;48.148;11.542;2023-05-07T10:32:49;2.13;;;1.35;;
45011;SDS011;63444;48.148;11.542;2023-05-07T10:35:17;1.35;;;1.25;;
45011;SDS011;63444;48.148;11.542;2023-05-07T10:37:52;2.22;;;1.40;;
45011;SDS011;63444;48.148;11.542;2023-05-07T10:40:19;2.22;;;1.58;;
45011;SDS011;63444;48.148;11.542;2023-05-07T10:43:19;1.52;;;1.30;;
45011;SDS011;63444;48.148;11.542;2023-05-07T10:45:38;1.48;;;1.27;;
45011;SDS011;63444;48.148;11.542;2023-05-07T10:50:33;1.40;;;1.20;;
45011;SDS011;63444;48.148;11.542;2023-05-07T10:55:45;2.70;;;1.35;;
45011;SDS011;63444;48.148;11.542;2023-05-07T11:00:55;2.33;;;1.83;;
45011;SDS011;63444;48.148;11.542;2023-05-07T11:03:25;2.53;;;1.45;;
45011;SDS011;63444;48.148;11.542;2023-05-07T11:06:10;2.22;;;1.48;;
45011;SDS011;63444;48.148;11.542;2023-05-07T11:08:57;1.58;;;1.48;;
45011;SDS011;63444;48.148;11.542;2023-05-07T11:14:13;1.90;;;1.60;;
45011;SDS011;63444;48.148;11.542;2023-05-07T11:16:39;2.50;;;1.60;;
45011;SDS011;63444;48.148;11.542;2023-05-07T11:19:07;4.00;;;2.17;;
45011;SDS011;63444;48.148;11.542;2023-05-07T11:21:39;2.50;;;1.63;;
45011;SDS011;63444;48.148;11.542;2023-05-07T11:24:07;2.67;;;2.00;;
45011;SDS011;63444;48.148;11.542;2023-05-07T11:26:44;3.17;;;1.80;;
45011;SDS011;63444;48.148;11.542;2023-05-07T11:29:11;2.42;;;2.00;;
45011;SDS011;63444;48.148;11.542;2023-05-07T11:31:38;2.33;;;1.88;;
45011;SDS011;63444;48.148;11.542;2023-05-07T11:34:04;2.13;;;1.67;;
45011;SDS011;63444;48.148;11.542;2023-05-07T11:36:31;3.60;;;1.70;;
45011;SDS011;63444;48.148;11.542;2023-05-07T11:38:58;1.83;;;1.67;;
45011;SDS011;63444;48.148;11.542;2023-05-07T11:41:33;2.00;;;1.50;;
45011;SDS011;63444;48.148;11.542;2023-05-07T11:44:02;2.00;;;1.52;;
45011;SDS011;63444;48.148;11.542;2023-05-07T11:46:28;3.63;;;1.48;;
45011;SDS011;63444;48.148;11.542;2023-05-07T11:48:54;2.00;;;1.80;;
45011;SDS011;63444;48.148;11.542;2023-05-07T11:51:21;1.45;;;1.35;;
45011;SDS011;63444;48.148;11.542;2023-05-07T11:53:51;1.70;;;1.60;;
45011;SDS011;63444;48.148;11.542;2023-05-07T11:56:17;1.73;;;1.35;;
45011;SDS011;63444;48.148;11.542;2023-05-07T11:58:44;1.75;;;1.55;;
45011;SDS011;63444;48.148;11.542;2023-05-07T12:01:11;2.13;;;1.75;;
45011;SDS011;63444;48.148;11.542;2023-05-07T12:03:41;2.80;;;1.98;;
45011;SDS011;63444;48.148;11.542;2023-05-07T12:06:07;2.30;;;1.65;;
45011;SDS011;63444;48.148;11.542;2023-05-07T12:08:36;2.22;;;1.80;;
45011;SDS011;63444;48.148;11.542;2023-05-07T12:11:03;1.90;;;1.60;;
45011;SDS011;63444;48.148;11.542;2023-05-07T12:13:31;2.88;;;1.83;;
45011;SDS011;63444;48.148;11.542;2023-05-07T12:15:57;1.88;;;1.67;;
45011;SDS011;63444;48.148;11.542;2023-05-07T12:18:23;3.10;;;1.95;;
45011;SDS011;63444;48.148;11.542;2023-05-07T12:20:49;2.67;;;1.95;;
45011;SDS011;63444;48.148;11.542;2023-05-07T12:23:15;5.18;;;1.83;;
45011;SDS011;63444;48.148;11.542;2023-05-07T12:25:42;3.05;;;1.88;;
45011;SDS011;63444;48.148;11.542;2023-05-07T12:28:15;3.00;;;1.80;;
45011;SDS011;63444;48.148;11.542;2023-05-07T12:30:42;2.03;;;1.42;;
45011;SDS011;63444;48.148;11.542;2023-05-07T12:33:08;2.00;;;1.40;;
45011;SDS011;63444;48.148;11.542;2023-05-07T12:35:39;3.05;;;1.67;;
45011;SDS011;63444;48.148;11.542;2023-05-07T12:38:10;1.58;;;1.45;;
45011;SDS011;63444;48.148;11.542;2023-05-07T12:40:43;3.92;;;1.80;;
45011;SDS011;63444;48.148;11.542;2023-05-07T12:45:53;2.25;;;1.60;;
45011;SDS011;63444;48.148;11.542;2023-05-07T12:48:20;3.33;;;1.80;;
45011;SDS011;63444;48.148;11.542;2023-05-07T12:50:50;2.28;;;1.80;;
45011;SDS011;63444;48.148;11.542;2023-05-07T12:53:16;1.90;;;1.70;;
45011;SDS011;63444;48.148;11.542;2023-05-07T12:55:46;2.97;;;1.50;;
45011;SDS011;63444;48.148;11.542;2023-05-07T12:58:20;1.77;;;1.48;;
45011;SDS011;63444;48.148;11.542;2023-05-07T13:00:48;1.90;;;1.52;;
45011;SDS011;63444;48.148;11.542;2023-05-07T13:03:34;1.60;;;1.50;;
45011;SDS011;63444;48.148;11.542;2023-05-07T13:06:05;2.38;;;1.45;;
45011;SDS011;63444;48.148;11.542;2023-05-07T13:08:33;11.40;;;1.70;;
45011;SDS011;63444;48.148;11.542;2023-05-07T13:11:02;1.40;;;1.30;;
45011;SDS011;63444;48.148;11.542;2023-05-07T13:13:31;1.60;;;1.40;;
45011;SDS011;63444;48.148;11.542;2023-05-07T13:15:57;1.95;;;1.20;;
45011;SDS011;63444;48.148;11.542;2023-05-07T13:18:26;1.55;;;1.30;;
45011;SDS011;63444;48.148;11.542;2023-05-07T13:20:54;2.65;;;1.45;;
45011;SDS011;63444;48.148;11.542;2023-05-07T13:23:20;4.10;;;3.05;;
45011;SDS011;63444;48.148;11.542;2023-05-07T13:25:47;5.15;;;4.47;;
45011;SDS011;63444;48.148;11.542;2023-05-07T13:28:13;1.98;;;1.40;;
45011;SDS011;63444;48.148;11.542;2023-05-07T13:30:39;1.73;;;1.42;;
45011;SDS011;63444;48.148;11.542;2023-05-07T13:33:05;2.63;;;1.58;;
45011;SDS011;63444;48.148;11.542;2023-05-07T13:35:31;2.15;;;1.27;;
45011;SDS011;63444;48.148;11.542;2023-05-07T13:37:57;1.85;;;1.35;;
45011;SDS011;63444;48.148;11.542;2023-05-07T13:40:23;1.73;;;1.40;;
45011;SDS011;63444;48.148;11.542;2023-05-07T13:42:49;1.55;;;1.30;;
45011;SDS011;63444;48.148;11.542;2023-05-07T13:45:15;1.42;;;1.33;;
45011;SDS011;63444;48.148;11.542;2023-05-07T13:47:42;2.00;;;1.52;;
45011;SDS011;63444;48.148;11.542;2023-05-07T13:50:09;1.80;;;1.20;;
45011;SDS011;63444;48.148;11.542;2023-05-07T13:52:36;1.52;;;1.35;;
45011;SDS011;63444;48.148;11.542;2023-05-07T13:55:07;2.95;;;1.40;;
45011;SDS011;63444;48.148;11.542;2023-05-07T13:57:32;1.50;;;1.40;;
45011;SDS011;63444;48.148;11.542;2023-05-07T13:59:58;1.55;;;1.30;;
45011;SDS011;63444;48.148;11.542;2023-05-07T14:02:23;4.47;;;1.65;;
45011;SDS011;63444;48.148;11.542;2023-05-07T14:04:49;1.65;;;1.40;;
45011;SDS011;63444;48.148;11.542;2023-05-07T14:07:14;1.65;;;1.20;;
45011;SDS011;63444;48.148;11.542;2023-05-07T14:09:40;2.05;;;1.40;;
45011;SDS011;63444;48.148;11.542;2023-05-07T14:12:06;1.50;;;1.40;;
45011;SDS011;63444;48.148;11.542;2023-05-07T14:14:31;2.38;;;1.50;;
45011;SDS011;63444;48.148;11.542;2023-05-07T14:16:57;1.50;;;1.40;;
45011;SDS011;63444;48.148;11.542;2023-05-07T14:19:23;1.45;;;1.35;;
45011;SDS011;63444;48.148;11.542;2023-05-07T14:21:48;3.72;;;1.55;;
45011;SDS011;63444;48.148;11.542;2023-05-07T14:24:14;1.70;;;1.50;;
45011;SDS011;63444;48.148;11.542;2023-05-07T14:26:39;1.42;;;1.13;;
45011;SDS011;63444;48.148;11.542;2023-05-07T14:29:05;1.50;;;1.40;;
45011;SDS011;63444;48.148;11.542;2023-05-07T14:31:31;2.55;;;1.50;;
45011;SDS011;63444;48.148;11.542;2023-05-07T14:33:57;2.65;;;1.30;;
45011;SDS011;63444;48.148;11.542;2023-05-07T14:36:23;1.90;;;1.70;;
45011;SDS011;63444;48.148;11.542;2023-05-07T14:38:51;2.30;;;1.50;;
45011;SDS011;63444;48.148;11.542;2023-05-07T14:41:18;1.45;;;1.35;;
45011;SDS011;63444;48.148;11.542;2023-05-07T14:43:43;1.52;;;1.40;;
45011;SDS011;63444;48.148;11.542;2023-05-07T14:46:14;2.03;;;1.63;;